Time;durP1;ratioP1;P1;durP2;ratioP2;P2;SDS_P1;SDS_P2;PMS_P1;PMS_P2;Temp;Humidity;BMP_temperature;BMP_pressure;BME280_temperature;BME280_humidity;BME280_pressure;Samples;Min_cycle;Max_cycle;Signal;HPM_P1;HPM_P2
2023/03/12 00:01:41;;;;;;;10.90;6.18;;;;;;;;;;6103232;23;20372;-77
2023/03/12 00:04:08;;;;;;;11.18;6.53;;;;;;;;;;6127607;23;20030;-77
2023/03/12 00:06:35;;;;;;;10.63;6.32;;;;;;;;;;6104532;23;20356;-77
2023/03/12 00:09:03;;;;;;;9.07;6.55;;;;;;;;;;6080382;23;20033;-77
2023/03/12 00:11:30;;;;;;;13.35;7.38;;;;;;;;;;6079933;23;20025;-77
2023/03/12 00:13:57;;;;;;;10.90;6.40;;;;;;;;;;6080339;23;20034;-78
2023/03/12 00:16:24;;;;;;;13.88;6.50;;;;;;;;;;6080061;23;20060;-77
2023/03/12 00:18:52;;;;;;;16.90;7.72;;;;;;;;;;6102638;23;20395;-77
2023/03/12 00:21:20;;;;;;;12.23;6.78;;;;;;;;;;6102550;23;20068;-76
2023/03/12 00:23:47;;;;;;;12.88;6.40;;;;;;;;;;6126551;23;20030;-76
2023/03/12 00:26:14;;;;;;;12.10;7.05;;;;;;;;;;6102561;23;20029;-76
2023/03/12 00:28:41;;;;;;;13.70;6.43;;;;;;;;;;6102428;23;20029;-76
2023/03/12 00:31:17;;;;;;;12.88;6.93;;;;;;;;;;6078366;23;20036;-76
2023/03/12 00:33:44;;;;;;;12.05;6.47;;;;;;;;;;6126404;23;20076;-76
2023/03/12 00:36:11;;;;;;;12.32;6.57;;;;;;;;;;6126690;23;20071;-76
2023/03/12 00:38:38;;;;;;;9.10;5.50;;;;;;;;;;6102154;23;20364;-77
2023/03/12 00:41:04;;;;;;;13.63;6.30;;;;;;;;;;6102066;23;20025;-75
2023/03/12 00:43:31;;;;;;;8.02;5.68;;;;;;;;;;6126412;23;20037;-76
2023/03/12 00:45:58;;;;;;;10.63;7.00;;;;;;;;;;6126403;23;20371;-75
2023/03/12 00:48:25;;;;;;;10.73;5.88;;;;;;;;;;6103944;23;20021;-76
2023/03/12 00:50:51;;;;;;;14.05;6.72;;;;;;;;;;6079575;23;20400;-76
2023/03/12 00:53:18;;;;;;;9.60;5.97;;;;;;;;;;6078796;23;20037;-76
2023/03/12 00:55:45;;;;;;;12.18;6.25;;;;;;;;;;6078821;23;20045;-76
2023/03/12 00:58:12;;;;;;;9.43;6.13;;;;;;;;;;6078228;23;20025;-76
2023/03/12 01:00:38;;;;;;;11.02;6.13;;;;;;;;;;6101905;23;20036;-76
2023/03/12 01:03:05;;;;;;;17.50;6.85;;;;;;;;;;6102019;23;20026;-75
2023/03/12 01:05:36;;;;;;;15.80;7.10;;;;;;;;;;6101799;23;20030;-76
2023/03/12 01:08:07;;;;;;;10.55;6.75;;;;;;;;;;6103000;23;20021;-76
2023/03/12 01:10:35;;;;;;;9.85;6.40;;;;;;;;;;6102387;23;20096;-77
2023/03/12 01:13:02;;;;;;;10.27;6.70;;;;;;;;;;6103134;23;20040;-77
2023/03/12 01:15:29;;;;;;;12.30;6.57;;;;;;;;;;6102506;23;20017;-77
2023/03/12 01:17:55;;;;;;;10.70;6.50;;;;;;;;;;6102401;23;20025;-77
2023/03/12 01:20:25;;;;;;;11.77;6.45;;;;;;;;;;6078387;23;20108;-77
2023/03/12 01:22:52;;;;;;;10.70;6.78;;;;;;;;;;6102356;23;20056;-76
2023/03/12 01:25:19;;;;;;;10.27;5.97;;;;;;;;;;6126275;23;20025;-76
2023/03/12 01:27:45;;;;;;;9.27;5.25;;;;;;;;;;6126258;23;20025;-75
2023/03/12 01:30:12;;;;;;;12.98;6.03;;;;;;;;;;6125768;23;20040;-76
2023/03/12 01:32:39;;;;;;;7.88;5.25;;;;;;;;;;6101750;23;20025;-75
2023/03/12 01:35:06;;;;;;;12.98;6.07;;;;;;;;;;6101970;23;20028;-75
2023/03/12 01:37:33;;;;;;;10.52;5.50;;;;;;;;;;6126223;23;20029;-75
2023/03/12 01:40:00;;;;;;;10.38;5.32;;;;;;;;;;6077726;23;20029;-75
2023/03/12 01:42:27;;;;;;;11.48;5.20;;;;;;;;;;6077760;23;20033;-75
2023/03/12 01:45:00;;;;;;;7.75;5.47;;;;;;;;;;6125971;23;20028;-75
2023/03/12 01:47:30;;;;;;;9.90;5.45;;;;;;;;;;6101941;23;20026;-75
2023/03/12 01:49:57;;;;;;;11.88;6.15;;;;;;;;;;6150045;23;20411;-75
2023/03/12 01:52:32;;;;;;;11.00;6.07;;;;;;;;;;6101410;23;20017;-75
2023/03/12 01:55:05;;;;;;;11.38;5.90;;;;;;;;;;6078173;23;20029;-75
2023/03/12 01:57:40;;;;;;;7.72;5.05;;;;;;;;;;6126218;23;20562;-76
2023/03/12 02:00:12;;;;;;;10.68;5.97;;;;;;;;;;6102412;23;20034;-76
2023/03/12 02:02:39;;;;;;;12.98;6.55;;;;;;;;;;6102613;23;20399;-76
2023/03/12 02:05:33;;;;;;;9.45;5.50;;;;;;;;;;6102413;23;20036;-75
2023/03/12 02:08:00;;;;;;;7.63;4.90;;;;;;;;;;6126556;23;20061;-75
2023/03/12 02:10:27;;;;;;;11.35;5.80;;;;;;;;;;6101949;23;20048;-76
2023/03/12 02:12:54;;;;;;;9.15;5.63;;;;;;;;;;6078789;23;20030;-75
2023/03/12 02:15:21;;;;;;;10.48;5.18;;;;;;;;;;6078568;23;20025;-76
2023/03/12 02:17:47;;;;;;;9.23;5.55;;;;;;;;;;6077886;23;20363;-76
2023/03/12 02:20:15;;;;;;;7.88;5.22;;;;;;;;;;6078362;23;20348;-77
2023/03/12 02:22:44;;;;;;;12.93;5.75;;;;;;;;;;6126485;23;20045;-76
2023/03/12 02:25:30;;;;;;;8.40;5.18;;;;;;;;;;6078567;23;20030;-76
2023/03/12 02:27:58;;;;;;;11.43;6.00;;;;;;;;;;6101900;23;20100;-75
2023/03/12 02:30:25;;;;;;;9.50;5.35;;;;;;;;;;6101460;23;20025;-75
2023/03/12 02:32:52;;;;;;;7.40;4.85;;;;;;;;;;6078468;23;20032;-75
2023/03/12 02:35:19;;;;;;;7.35;5.18;;;;;;;;;;6103002;23;20091;-76
2023/03/12 02:37:51;;;;;;;9.55;5.70;;;;;;;;;;6079693;23;20036;-76
2023/03/12 02:40:26;;;;;;;8.95;5.80;;;;;;;;;;6080565;23;20033;-76
2023/03/12 02:42:53;;;;;;;9.15;5.15;;;;;;;;;;6103810;23;20033;-76
2023/03/12 02:45:20;;;;;;;9.02;6.18;;;;;;;;;;6127833;23;20033;-76
2023/03/12 02:47:47;;;;;;;10.55;5.53;;;;;;;;;;6104148;23;20041;-75
2023/03/12 02:50:14;;;;;;;9.52;5.85;;;;;;;;;;6127450;23;20025;-75
2023/03/12 02:52:41;;;;;;;11.15;6.30;;;;;;;;;;6127747;23;20025;-75
2023/03/12 02:55:08;;;;;;;10.77;5.85;;;;;;;;;;6128147;23;20060;-76
2023/03/12 02:57:37;;;;;;;10.48;5.20;;;;;;;;;;6080205;23;20028;-76
2023/03/12 03:00:11;;;;;;;12.73;5.75;;;;;;;;;;6080688;23;20026;-76
2023/03/12 03:02:38;;;;;;;8.60;5.63;;;;;;;;;;6081089;23;20552;-76
2023/03/12 03:05:06;;;;;;;10.63;5.88;;;;;;;;;;6103523;23;20104;-76
2023/03/12 03:07:32;;;;;;;8.88;5.90;;;;;;;;;;6079813;23;20077;-76
2023/03/12 03:10:03;;;;;;;12.68;5.55;;;;;;;;;;6079010;23;20028;-76
2023/03/12 03:12:30;;;;;;;10.48;5.47;;;;;;;;;;6104186;23;20136;-76
2023/03/12 03:14:57;;;;;;;9.95;5.78;;;;;;;;;;6153644;23;20040;-76
2023/03/12 03:17:24;;;;;;;13.18;5.75;;;;;;;;;;6103489;23;20032;-75
2023/03/12 03:19:51;;;;;;;9.50;5.20;;;;;;;;;;6127042;23;20478;-76
2023/03/12 03:22:19;;;;;;;8.52;6.43;;;;;;;;;;6151708;23;20036;-76
2023/03/12 03:24:45;;;;;;;8.40;4.88;;;;;;;;;;6103107;23;20032;-77
2023/03/12 03:27:12;;;;;;;14.73;5.78;;;;;;;;;;6127067;23;20495;-76
2023/03/12 03:29:39;;;;;;;8.13;5.30;;;;;;;;;;6153370;23;20021;-75
2023/03/12 03:32:06;;;;;;;9.02;5.57;;;;;;;;;;6102443;23;20360;-75
2023/03/12 03:34:33;;;;;;;9.55;5.13;;;;;;;;;;6103968;23;20029;-75
2023/03/12 03:37:00;;;;;;;9.98;5.30;;;;;;;;;;6116788;23;20085;-74
2023/03/12 03:39:28;;;;;;;8.82;4.82;;;;;;;;;;6126115;23;20029;-75
2023/03/12 03:41:54;;;;;;;9.50;5.30;;;;;;;;;;6107307;23;20018;-75
2023/03/12 03:44:21;;;;;;;11.18;5.60;;;;;;;;;;6130398;23;20025;-74
2023/03/12 03:46:48;;;;;;;10.02;5.85;;;;;;;;;;6128070;23;20036;-74
2023/03/12 03:49:15;;;;;;;8.70;5.07;;;;;;;;;;6145324;23;20025;-75
2023/03/12 03:51:42;;;;;;;9.43;5.57;;;;;;;;;;6103385;23;20033;-75
2023/03/12 03:54:09;;;;;;;10.15;5.22;;;;;;;;;;6103764;23;20033;-75
2023/03/12 03:56:36;;;;;;;9.00;5.15;;;;;;;;;;6128065;23;20025;-75
2023/03/12 03:59:03;;;;;;;11.38;5.57;;;;;;;;;;6103930;23;20021;-76
2023/03/12 04:01:32;;;;;;;9.88;5.00;;;;;;;;;;6103488;23;20037;-76
2023/03/12 04:03:59;;;;;;;8.55;5.13;;;;;;;;;;6104140;23;20356;-78
2023/03/12 04:06:26;;;;;;;10.73;4.93;;;;;;;;;;6103785;23;20037;-76
2023/03/12 04:08:53;;;;;;;8.38;4.90;;;;;;;;;;6103591;23;20018;-76
2023/03/12 04:11:20;;;;;;;12.88;4.90;;;;;;;;;;6103314;23;20029;-76
2023/03/12 04:13:48;;;;;;;7.38;5.05;;;;;;;;;;6079888;23;20033;-76
2023/03/12 04:16:15;;;;;;;10.02;5.15;;;;;;;;;;6152426;23;20030;-76
2023/03/12 04:18:42;;;;;;;11.45;5.85;;;;;;;;;;6079819;23;20033;-76
2023/03/12 04:21:10;;;;;;;10.20;4.82;;;;;;;;;;6078993;23;20361;-77
2023/03/12 04:23:37;;;;;;;10.98;5.00;;;;;;;;;;6081444;23;20108;-77
2023/03/12 04:26:04;;;;;;;9.48;5.05;;;;;;;;;;6085351;23;20057;-77
2023/03/12 04:28:31;;;;;;;10.88;5.65;;;;;;;;;;6080347;23;20574;-77
2023/03/12 04:31:00;;;;;;;8.25;5.07;;;;;;;;;;6078688;23;20036;-76
2023/03/12 04:33:28;;;;;;;8.10;4.93;;;;;;;;;;6102669;23;20551;-75
2023/03/12 04:35:55;;;;;;;9.32;4.30;;;;;;;;;;6126810;23;20021;-75
2023/03/12 04:38:23;;;;;;;9.52;4.80;;;;;;;;;;6102489;23;20479;-76
2023/03/12 04:41:07;;;;;;;11.90;4.65;;;;;;;;;;6126379;23;20036;-76
2023/03/12 04:43:34;;;;;;;10.23;4.88;;;;;;;;;;6126980;23;20333;-75
2023/03/12 04:46:01;;;;;;;6.05;3.97;;;;;;;;;;6102589;23;20029;-76
2023/03/12 04:48:28;;;;;;;10.48;4.78;;;;;;;;;;6078828;23;20033;-75
2023/03/12 04:50:54;;;;;;;6.57;4.47;;;;;;;;;;6126388;23;20029;-76
2023/03/12 04:53:21;;;;;;;7.50;4.38;;;;;;;;;;6152768;23;20029;-76
2023/03/12 04:55:49;;;;;;;6.00;4.00;;;;;;;;;;6126843;23;20033;-75
2023/03/12 04:58:16;;;;;;;7.90;4.88;;;;;;;;;;6078075;23;20025;-75
2023/03/12 05:00:43;;;;;;;9.13;4.85;;;;;;;;;;6101609;23;20030;-75
2023/03/12 05:03:11;;;;;;;6.07;4.20;;;;;;;;;;6078671;23;20029;-76
2023/03/12 05:05:37;;;;;;;13.52;4.15;;;;;;;;;;6102109;23;20498;-76
2023/03/12 05:08:04;;;;;;;9.88;4.75;;;;;;;;;;6102222;23;20037;-76
2023/03/12 05:10:31;;;;;;;6.38;4.07;;;;;;;;;;6078023;23;20025;-75
2023/03/12 05:12:58;;;;;;;7.45;4.00;;;;;;;;;;6126300;23;20080;-75
2023/03/12 05:15:25;;;;;;;9.45;4.60;;;;;;;;;;6078294;23;20032;-76
2023/03/12 05:17:52;;;;;;;8.55;4.88;;;;;;;;;;6102403;23;20131;-75
2023/03/12 05:20:20;;;;;;;6.15;4.30;;;;;;;;;;6078996;23;20080;-77
2023/03/12 05:22:47;;;;;;;9.40;4.32;;;;;;;;;;6078584;23;20040;-77
2023/03/12 05:25:14;;;;;;;8.93;3.97;;;;;;;;;;6081094;23;20025;-77
2023/03/12 05:27:40;;;;;;;8.40;3.97;;;;;;;;;;6078828;23;20021;-77
2023/03/12 05:30:08;;;;;;;6.50;3.85;;;;;;;;;;6101337;23;20032;-76
2023/03/12 05:32:35;;;;;;;7.40;4.65;;;;;;;;;;6101998;23;20029;-76
2023/03/12 05:35:02;;;;;;;6.82;4.18;;;;;;;;;;6078144;23;20471;-76
2023/03/12 05:37:29;;;;;;;5.25;3.72;;;;;;;;;;6078305;23;20028;-76
2023/03/12 05:39:56;;;;;;;8.07;4.03;;;;;;;;;;6101835;23;20055;-77
2023/03/12 05:42:23;;;;;;;6.28;3.85;;;;;;;;;;6078353;23;20061;-76
2023/03/12 05:44:50;;;;;;;7.65;4.28;;;;;;;;;;6103934;23;20025;-78
2023/03/12 05:47:17;;;;;;;6.53;3.83;;;;;;;;;;6082400;23;20408;-79
2023/03/12 05:49:44;;;;;;;5.15;3.53;;;;;;;;;;6105403;23;20027;-81
2023/03/12 05:52:11;;;;;;;7.20;3.63;;;;;;;;;;6129594;23;20370;-79
2023/03/12 05:54:38;;;;;;;10.18;3.83;;;;;;;;;;6082909;23;20030;-80
2023/03/12 05:57:05;;;;;;;6.70;3.67;;;;;;;;;;6106959;23;20111;-80
2023/03/12 05:59:32;;;;;;;6.65;3.50;;;;;;;;;;6107252;23;20029;-80
2023/03/12 06:02:01;;;;;;;5.95;3.08;;;;;;;;;;6082273;23;20026;-79
2023/03/12 06:04:28;;;;;;;7.75;3.83;;;;;;;;;;6107105;23;20033;-80
2023/03/12 06:06:55;;;;;;;7.28;3.83;;;;;;;;;;6082655;23;20032;-80
2023/03/12 06:09:25;;;;;;;6.75;3.17;;;;;;;;;;6107720;23;20036;-79
2023/03/12 06:11:52;;;;;;;5.95;3.67;;;;;;;;;;6110435;23;20341;-79
2023/03/12 06:14:18;;;;;;;7.10;3.63;;;;;;;;;;6133474;23;20085;-79
2023/03/12 06:16:45;;;;;;;7.00;4.05;;;;;;;;;;6132929;23;20032;-79
2023/03/12 06:19:13;;;;;;;10.70;4.40;;;;;;;;;;6129315;23;20040;-78
2023/03/12 06:21:41;;;;;;;5.60;3.78;;;;;;;;;;6083438;23;20486;-82
2023/03/12 06:24:11;;;;;;;5.70;3.80;;;;;;;;;;6084353;23;20037;-82
2023/03/12 06:26:39;;;;;;;5.15;3.55;;;;;;;;;;6107787;23;20036;-78
2023/03/12 06:29:06;;;;;;;8.73;4.05;;;;;;;;;;6131960;23;20021;-79
2023/03/12 06:31:33;;;;;;;7.40;4.10;;;;;;;;;;6155595;23;20029;-78
2023/03/12 06:34:04;;;;;;;6.78;3.58;;;;;;;;;;6085059;23;20360;-79
2023/03/12 06:36:31;;;;;;;6.60;4.32;;;;;;;;;;6104640;23;20076;-78
2023/03/12 06:38:58;;;;;;;7.63;4.35;;;;;;;;;;6106142;23;20049;-78
2023/03/12 06:41:25;;;;;;;7.82;4.75;;;;;;;;;;6105879;23;20101;-78
2023/03/12 06:43:52;;;;;;;8.18;4.40;;;;;;;;;;6110436;23;20494;-78
2023/03/12 06:46:24;;;;;;;7.75;4.28;;;;;;;;;;6083294;23;20081;-78
2023/03/12 06:48:51;;;;;;;8.98;4.85;;;;;;;;;;6086162;23;20029;-78
2023/03/12 06:51:17;;;;;;;9.82;5.57;;;;;;;;;;6131946;23;20162;-77
2023/03/12 06:53:44;;;;;;;12.93;8.05;;;;;;;;;;6131657;23;20103;-78
2023/03/12 06:56:12;;;;;;;9.88;6.40;;;;;;;;;;6110346;23;20030;-78
2023/03/12 06:58:38;;;;;;;7.13;4.63;;;;;;;;;;6112015;23;20033;-78
2023/03/12 07:01:05;;;;;;;7.03;3.92;;;;;;;;;;6132738;23;20017;-84
2023/03/12 07:03:32;;;;;;;10.23;4.05;;;;;;;;;;6126844;23;20056;-84
2023/03/12 07:05:59;;;;;;;5.60;3.90;;;;;;;;;;6161930;23;20032;-83
2023/03/12 07:08:29;;;;;;;8.82;3.90;;;;;;;;;;6087304;23;20032;-81
2023/03/12 07:10:57;;;;;;;7.70;4.22;;;;;;;;;;6110665;23;20045;-80
2023/03/12 07:13:27;;;;;;;8.18;4.22;;;;;;;;;;6089079;23;20044;-76
2023/03/12 07:15:54;;;;;;;6.40;4.28;;;;;;;;;;6137109;23;20039;-84
2023/03/12 07:18:20;;;;;;;16.88;8.20;;;;;;;;;;6095340;23;20033;-84
2023/03/12 07:20:47;;;;;;;14.52;8.60;;;;;;;;;;6094669;23;20029;-82
2023/03/12 07:23:15;;;;;;;8.18;6.78;;;;;;;;;;6117675;23;20025;-83
2023/03/12 07:25:42;;;;;;;8.07;5.20;;;;;;;;;;6119960;23;20029;-83
2023/03/12 07:28:10;;;;;;;31.90;19.80;;;;;;;;;;6093421;23;20085;-84
2023/03/12 07:30:36;;;;;;;12.32;8.25;;;;;;;;;;6093050;23;20045;-83
2023/03/12 07:33:05;;;;;;;10.20;6.18;;;;;;;;;;6117255;23;20029;-85
2023/03/12 07:35:32;;;;;;;8.95;5.18;;;;;;;;;;6094180;23;20080;-85
2023/03/12 07:38:00;;;;;;;11.32;5.20;;;;;;;;;;6093197;23;20025;-85
2023/03/12 07:40:27;;;;;;;6.63;4.65;;;;;;;;;;6114811;23;20056;-85
2023/03/12 07:42:54;;;;;;;7.00;3.92;;;;;;;;;;6116517;23;20048;-83
2023/03/12 07:45:21;;;;;;;6.82;5.45;;;;;;;;;;6116916;23;20025;-84
2023/03/12 07:47:47;;;;;;;8.95;5.47;;;;;;;;;;6117126;23;20033;-84
2023/03/12 07:50:16;;;;;;;8.48;4.75;;;;;;;;;;6116812;23;20033;-82
2023/03/12 07:52:43;;;;;;;8.20;4.55;;;;;;;;;;6115975;23;20030;-84
2023/03/12 07:55:10;;;;;;;6.85;4.60;;;;;;;;;;6091617;23;20100;-84
2023/03/12 07:57:37;;;;;;;10.27;5.65;;;;;;;;;;6116277;23;20036;-85
2023/03/12 08:00:09;;;;;;;7.65;5.82;;;;;;;;;;6135763;23;20030;-79
2023/03/12 08:02:36;;;;;;;7.88;5.15;;;;;;;;;;6126220;23;20495;-77
2023/03/12 08:05:03;;;;;;;9.85;5.15;;;;;;;;;;6081313;23;20025;-86
2023/03/12 08:07:34;;;;;;;7.07;4.38;;;;;;;;;;6086832;23;20029;-83
2023/03/12 08:10:02;;;;;;;5.45;4.20;;;;;;;;;;6084854;23;20099;-84
2023/03/12 08:12:29;;;;;;;6.78;4.63;;;;;;;;;;6131283;23;20067;-84
2023/03/12 08:14:56;;;;;;;10.48;6.00;;;;;;;;;;6108044;23;20026;-84
2023/03/12 08:17:23;;;;;;;9.05;6.03;;;;;;;;;;6083863;23;20375;-83
2023/03/12 08:19:49;;;;;;;5.40;4.82;;;;;;;;;;6133082;23;20021;-82
2023/03/12 08:22:16;;;;;;;9.82;5.43;;;;;;;;;;6084609;23;20026;-83
2023/03/12 08:24:43;;;;;;;5.95;4.05;;;;;;;;;;6106737;23;20021;-80
2023/03/12 08:27:11;;;;;;;6.50;4.32;;;;;;;;;;6131568;23;20033;-80
2023/03/12 08:29:38;;;;;;;5.97;4.55;;;;;;;;;;6106773;23;20030;-78
2023/03/12 08:32:06;;;;;;;7.85;5.22;;;;;;;;;;6084281;23;20036;-79
2023/03/12 08:34:33;;;;;;;6.10;4.15;;;;;;;;;;6107241;23;20039;-77
2023/03/12 08:37:04;;;;;;;5.97;4.68;;;;;;;;;;6073915;23;20030;-77
2023/03/12 08:39:31;;;;;;;6.00;3.90;;;;;;;;;;6100989;23;20043;-77
2023/03/12 08:41:58;;;;;;;7.85;4.40;;;;;;;;;;6099765;23;20035;-77
2023/03/12 08:44:25;;;;;;;7.68;4.60;;;;;;;;;;6103843;23;20040;-78
2023/03/12 08:46:52;;;;;;;7.20;4.60;;;;;;;;;;6091635;23;20662;-77
2023/03/12 08:49:19;;;;;;;8.15;4.50;;;;;;;;;;6107853;23;20072;-79
2023/03/12 08:51:46;;;;;;;8.55;5.10;;;;;;;;;;6081104;23;20077;-78
2023/03/12 08:54:13;;;;;;;9.80;5.63;;;;;;;;;;6105576;23;20105;-78
2023/03/12 08:56:43;;;;;;;9.48;5.07;;;;;;;;;;6105387;23;20030;-78
2023/03/12 08:59:10;;;;;;;8.00;4.60;;;;;;;;;;6104470;23;20028;-78
2023/03/12 09:01:37;;;;;;;8.32;4.63;;;;;;;;;;6152903;23;20357;-78
2023/03/12 09:04:06;;;;;;;5.47;4.25;;;;;;;;;;6080864;23;20087;-78
2023/03/12 09:06:34;;;;;;;18.25;8.73;;;;;;;;;;6103432;23;20060;-78
2023/03/12 09:09:03;;;;;;;14.68;7.80;;;;;;;;;;6103787;23;20077;-79
2023/03/12 09:11:33;;;;;;;11.38;6.22;;;;;;;;;;6103470;23;20033;-78
2023/03/12 09:14:00;;;;;;;10.52;6.47;;;;;;;;;;6079374;23;20072;-78
2023/03/12 09:16:48;;;;;;;9.60;6.63;;;;;;;;;;6113643;23;20349;-76
2023/03/12 09:19:15;;;;;;;8.90;6.40;;;;;;;;;;6035049;23;20503;-79
2023/03/12 09:21:41;;;;;;;10.02;5.63;;;;;;;;;;6068852;23;20045;-77
2023/03/12 09:24:09;;;;;;;9.80;5.03;;;;;;;;;;6021768;23;20078;-77
2023/03/12 09:26:35;;;;;;;7.93;5.13;;;;;;;;;;6044891;23;20026;-78
2023/03/12 09:29:02;;;;;;;8.98;5.78;;;;;;;;;;6045034;23;20394;-75
2023/03/12 09:31:29;;;;;;;11.05;5.90;;;;;;;;;;6043519;23;20475;-77
2023/03/12 09:33:56;;;;;;;7.20;5.13;;;;;;;;;;6044369;23;20049;-78
2023/03/12 09:36:23;;;;;;;10.07;5.88;;;;;;;;;;6044642;23;20042;-77
2023/03/12 09:38:49;;;;;;;9.80;5.68;;;;;;;;;;6021194;23;20098;-78
2023/03/12 09:41:19;;;;;;;12.70;5.38;;;;;;;;;;6044497;23;20024;-78
2023/03/12 09:44:11;;;;;;;6.82;4.47;;;;;;;;;;6047453;23;20082;-77
2023/03/12 09:46:59;;;;;;;6.15;5.20;;;;;;;;;;6075124;23;20503;-79
2023/03/12 09:49:47;;;;;;;6.97;5.30;;;;;;;;;;6050861;23;20058;-78
2023/03/12 09:52:18;;;;;;;7.10;5.00;;;;;;;;;;6046250;23;20022;-77
2023/03/12 09:54:51;;;;;;;7.93;5.07;;;;;;;;;;6069970;23;20029;-77
2023/03/12 09:57:22;;;;;;;10.13;5.05;;;;;;;;;;6068911;23;20105;-77
2023/03/12 09:59:50;;;;;;;8.35;5.28;;;;;;;;;;6048159;23;20022;-78
2023/03/12 10:02:42;;;;;;;7.13;5.38;;;;;;;;;;6071249;23;20105;-78
2023/03/12 10:05:13;;;;;;;6.00;4.88;;;;;;;;;;6072900;23;20034;-77
2023/03/12 10:07:48;;;;;;;10.60;5.38;;;;;;;;;;6072368;23;20095;-77
2023/03/12 10:10:21;;;;;;;9.00;6.32;;;;;;;;;;6048627;23;20046;-78
2023/03/12 10:13:11;;;;;;;6.05;4.85;;;;;;;;;;6070668;23;20026;-78
2023/03/12 10:15:56;;;;;;;8.10;5.20;;;;;;;;;;6094866;23;20026;-78
2023/03/12 10:19:02;;;;;;;7.95;6.07;;;;;;;;;;6071269;23;20030;-79
2023/03/12 10:21:57;;;;;;;8.80;5.15;;;;;;;;;;6068776;23;20018;-78
2023/03/12 10:24:40;;;;;;;7.43;4.55;;;;;;;;;;6047827;23;20030;-78
2023/03/12 10:27:11;;;;;;;6.50;5.20;;;;;;;;;;6068551;23;20018;-77
2023/03/12 10:29:40;;;;;;;6.20;4.68;;;;;;;;;;6045271;23;20061;-79
2023/03/12 10:32:15;;;;;;;5.88;4.75;;;;;;;;;;6048847;23;20412;-79
2023/03/12 10:34:48;;;;;;;8.07;4.80;;;;;;;;;;6095129;23;20033;-79
2023/03/12 10:37:33;;;;;;;6.82;4.55;;;;;;;;;;6048312;23;20032;-78
2023/03/12 10:40:01;;;;;;;4.75;4.22;;;;;;;;;;6049524;23;20058;-78
2023/03/12 10:42:28;;;;;;;5.38;4.20;;;;;;;;;;6052695;23;20026;-78
2023/03/12 10:45:15;;;;;;;5.80;4.43;;;;;;;;;;6050817;23;20049;-78
2023/03/12 10:47:43;;;;;;;5.80;4.38;;;;;;;;;;6053091;23;20499;-78
2023/03/12 10:50:20;;;;;;;3.65;3.28;;;;;;;;;;6046975;23;20449;-78
2023/03/12 10:52:49;;;;;;;5.22;4.43;;;;;;;;;;6046822;23;20093;-78
2023/03/12 10:55:23;;;;;;;6.72;4.78;;;;;;;;;;6048687;23;20022;-78
2023/03/12 10:57:51;;;;;;;6.22;4.20;;;;;;;;;;6050252;23;20032;-86
2023/03/12 11:00:30;;;;;;;5.88;4.50;;;;;;;;;;6049234;23;20022;-79
2023/03/12 11:03:04;;;;;;;9.65;4.72;;;;;;;;;;6027785;23;20030;-78
2023/03/12 11:05:36;;;;;;;7.13;4.65;;;;;;;;;;6049034;23;20026;-78
2023/03/12 11:08:03;;;;;;;6.68;4.68;;;;;;;;;;6023721;23;20234;-79
2023/03/12 11:10:43;;;;;;;8.07;4.68;;;;;;;;;;6048039;23;20369;-77
2023/03/12 11:13:28;;;;;;;5.40;3.97;;;;;;;;;;6093759;23;20477;-79
2023/03/12 11:16:00;;;;;;;7.35;4.18;;;;;;;;;;6042645;23;20026;-77
2023/03/12 11:18:31;;;;;;;5.45;3.92;;;;;;;;;;6044473;23;20093;-80
2023/03/12 11:21:10;;;;;;;5.18;3.80;;;;;;;;;;6091055;23;20028;-79
2023/03/12 11:23:39;;;;;;;4.78;3.28;;;;;;;;;;6067644;23;20026;-80
2023/03/12 11:26:22;;;;;;;4.30;3.20;;;;;;;;;;6044483;23;20022;-80
2023/03/12 11:28:51;;;;;;;4.35;2.97;;;;;;;;;;6093927;23;20326;-80
2023/03/12 11:31:25;;;;;;;3.42;2.67;;;;;;;;;;6048413;23;20045;-81
2023/03/12 11:34:02;;;;;;;3.75;2.58;;;;;;;;;;6093643;23;20066;-80
2023/03/12 11:36:44;;;;;;;3.83;2.50;;;;;;;;;;6047313;23;20049;-79
2023/03/12 11:39:25;;;;;;;2.83;2.00;;;;;;;;;;6070418;23;20031;-79
2023/03/12 11:42:06;;;;;;;3.80;2.35;;;;;;;;;;6048027;23;20065;-81
2023/03/12 11:44:49;;;;;;;2.45;2.13;;;;;;;;;;6070139;23;20101;-79
2023/03/12 11:47:22;;;;;;;1.60;1.15;;;;;;;;;;6071881;23;20045;-80
2023/03/12 11:50:05;;;;;;;3.05;1.40;;;;;;;;;;6093185;23;20023;-80
2023/03/12 11:52:44;;;;;;;2.50;1.40;;;;;;;;;;6093029;23;20030;-80
2023/03/12 11:55:48;;;;;;;2.50;1.35;;;;;;;;;;6071882;23;20491;-80
2023/03/12 11:58:41;;;;;;;2.50;1.20;;;;;;;;;;6052340;23;20356;-80
2023/03/12 12:01:38;;;;;;;6.97;3.50;;;;;;;;;;6050459;23;20081;-80
2023/03/12 12:04:29;;;;;;;9.98;4.05;;;;;;;;;;6073190;23;20152;-80
2023/03/12 12:06:59;;;;;;;4.18;2.15;;;;;;;;;;6071083;23;20104;-80
2023/03/12 12:09:56;;;;;;;1.83;1.10;;;;;;;;;;6095645;23;20105;-79
2023/03/12 12:12:44;;;;;;;4.18;1.90;;;;;;;;;;6064323;23;20041;-80
2023/03/12 12:15:43;;;;;;;5.43;2.92;;;;;;;;;;6070905;23;20098;-80
2023/03/12 12:18:16;;;;;;;3.35;1.20;;;;;;;;;;6050842;23;20061;-79
2023/03/12 12:20:45;;;;;;;3.67;1.40;;;;;;;;;;6070562;23;20082;-79
2023/03/12 12:23:21;;;;;;;1.98;1.45;;;;;;;;;;6071512;23;20030;-80
2023/03/12 12:26:00;;;;;;;3.25;1.40;;;;;;;;;;6072234;23;20023;-80
2023/03/12 12:28:30;;;;;;;3.80;1.52;;;;;;;;;;6049699;23;20401;-79
2023/03/12 12:31:06;;;;;;;5.90;2.47;;;;;;;;;;6070179;23;20018;-81
2023/03/12 12:33:41;;;;;;;3.78;1.55;;;;;;;;;;6072125;23;20113;-80
2023/03/12 12:36:09;;;;;;;1.98;0.75;;;;;;;;;;6071843;23;20033;-81
2023/03/12 12:38:45;;;;;;;2.92;1.05;;;;;;;;;;6048539;23;20058;-81
2023/03/12 12:41:20;;;;;;;3.42;1.35;;;;;;;;;;6050887;23;20366;-81
2023/03/12 12:43:50;;;;;;;4.70;1.35;;;;;;;;;;6025832;23;20045;-81
2023/03/12 12:46:45;;;;;;;4.88;2.38;;;;;;;;;;6048299;23;20457;-81
2023/03/12 12:49:18;;;;;;;3.45;1.67;;;;;;;;;;6051123;23;20029;-80
2023/03/12 12:52:02;;;;;;;1.63;1.08;;;;;;;;;;6048407;23;20038;-80
2023/03/12 12:54:56;;;;;;;3.17;1.33;;;;;;;;;;6048715;23;20534;-80
2023/03/12 12:57:43;;;;;;;;;;;;;;;;;;6096320;23;20109;-80
2023/03/12 13:00:39;;;;;;;3.97;1.63;;;;;;;;;;6072408;23;19921;-80
2023/03/12 13:03:29;;;;;;;5.35;1.88;;;;;;;;;;6052005;23;20444;-79
2023/03/12 13:05:58;;;;;;;5.20;1.70;;;;;;;;;;6051033;23;20024;-80
2023/03/12 13:08:43;;;;;;;4.82;1.58;;;;;;;;;;6043385;23;20026;-80
2023/03/12 13:11:13;;;;;;;6.88;1.63;;;;;;;;;;6067413;23;20053;-80
2023/03/12 13:13:57;;;;;;;2.63;1.00;;;;;;;;;;6070978;23;20484;-80
2023/03/12 13:16:43;;;;;;;2.40;1.30;;;;;;;;;;6071838;23;20051;-81
2023/03/12 13:19:15;;;;;;;6.38;1.17;;;;;;;;;;6094136;23;20029;-80
2023/03/12 13:22:03;;;;;;;6.53;2.40;;;;;;;;;;6068589;23;20028;-80
2023/03/12 13:24:39;;;;;;;4.30;1.70;;;;;;;;;;6069960;23;20022;-80
2023/03/12 13:27:19;;;;;;;4.82;1.60;;;;;;;;;;6092646;23;20022;-80
2023/03/12 13:29:50;;;;;;;6.90;1.60;;;;;;;;;;6092025;23;20097;-82
2023/03/12 13:32:37;;;;;;;3.78;1.50;;;;;;;;;;6047289;23;20093;-81
2023/03/12 13:35:10;;;;;;;5.07;1.60;;;;;;;;;;6092861;23;20105;-80
2023/03/12 13:37:59;;;;;;;4.43;1.27;;;;;;;;;;6070468;23;20037;-80
2023/03/12 13:40:28;;;;;;;4.95;1.48;;;;;;;;;;6045924;23;20053;-80
2023/03/12 13:43:30;;;;;;;4.38;1.40;;;;;;;;;;6070194;23;20022;-79
2023/03/12 13:46:05;;;;;;;6.18;2.58;;;;;;;;;;6093296;23;20026;-79
2023/03/12 13:48:33;;;;;;;7.57;2.63;;;;;;;;;;6046887;23;20027;-79
2023/03/12 13:51:14;;;;;;;6.72;2.22;;;;;;;;;;6022156;23;20018;-79
2023/03/12 13:53:40;;;;;;;4.18;1.13;;;;;;;;;;6046161;23;20022;-79
2023/03/12 13:56:13;;;;;;;9.40;2.63;;;;;;;;;;6047287;23;20036;-80
2023/03/12 13:59:06;;;;;;;7.77;2.77;;;;;;;;;;6046708;23;20026;-80
2023/03/12 14:01:40;;;;;;;7.10;2.30;;;;;;;;;;6064607;23;20469;-80
2023/03/12 14:04:11;;;;;;;4.85;1.35;;;;;;;;;;6047606;23;20030;-80
2023/03/12 14:07:06;;;;;;;6.95;2.58;;;;;;;;;;6047626;23;20483;-80
2023/03/12 14:09:45;;;;;;;7.13;1.58;;;;;;;;;;6071107;23;20062;-80
2023/03/12 14:12:36;;;;;;;5.68;1.90;;;;;;;;;;6094914;23;20019;-80
2023/03/12 14:15:10;;;;;;;6.60;1.85;;;;;;;;;;6070796;23;20531;-80
2023/03/12 14:17:36;;;;;;;;;;;;;;;;;;6070302;23;20045;-80
2023/03/12 14:20:16;;;;;;;6.07;1.48;;;;;;;;;;6067572;23;19928;-79
2023/03/12 14:22:44;;;;;;;8.15;1.70;;;;;;;;;;6044363;23;20022;-79
2023/03/12 14:25:32;;;;;;;7.95;1.60;;;;;;;;;;6044445;23;20365;-79
2023/03/12 14:27:59;;;;;;;14.25;2.70;;;;;;;;;;6047659;23;20481;-79
2023/03/12 14:30:35;;;;;;;7.82;1.60;;;;;;;;;;6044026;23;20023;-79
2023/03/12 14:33:02;;;;;;;5.88;1.10;;;;;;;;;;6068772;23;20018;-79
2023/03/12 14:35:36;;;;;;;8.73;1.48;;;;;;;;;;6045395;23;20085;-80
2023/03/12 14:38:10;;;;;;;9.00;2.28;;;;;;;;;;6045829;23;20639;-79
2023/03/12 14:40:43;;;;;;;6.07;1.63;;;;;;;;;;6046062;23;20027;-79
2023/03/12 14:43:33;;;;;;;5.78;1.35;;;;;;;;;;6047204;23;20018;-79
2023/03/12 14:46:05;;;;;;;4.93;1.42;;;;;;;;;;6045902;23;20030;-80
2023/03/12 14:48:34;;;;;;;8.43;2.13;;;;;;;;;;6043653;23;20723;-85
2023/03/12 14:51:04;;;;;;;4.53;1.33;;;;;;;;;;6043962;23;20023;-79
2023/03/12 14:53:33;;;;;;;6.15;1.40;;;;;;;;;;6043222;23;20030;-78
2023/03/12 14:56:19;;;;;;;8.27;2.65;;;;;;;;;;6043657;23;20032;-79
2023/03/12 14:58:48;;;;;;;5.35;2.08;;;;;;;;;;6044954;23;20035;-78
2023/03/12 15:01:25;;;;;;;3.00;1.35;;;;;;;;;;6048034;23;20019;-81
2023/03/12 15:04:00;;;;;;;4.55;1.10;;;;;;;;;;6052024;23;20083;-80
2023/03/12 15:06:32;;;;;;;5.57;1.52;;;;;;;;;;6051829;23;20054;-83